DAL1553 KDEN-KSLC
Flight info
| Callsign | DAL1553 |
|---|---|
| Flight time | 0h 59m |
| Altitude | 36000 |
| Route | ZIMMR3 CHNGY EKR RACER JAZZZ1 |
| Aircraft | BCS1/M-SBDE2E3GIRWXY/LB1 |
Departure
| Time | 2026-05-08 04:27 |
|---|---|
| Airport | Denver International Airport (KDEN) |
Arrival
| Time | 2026-05-08 05:27 |
|---|---|
| Airport | Salt Lake City International Airport (KSLC) |
| Time | Latitude | Longitude | Altitude | Speed | Heading |
|---|---|---|---|---|---|
| 2026-05-08 04:03 | 39.85439 | -104.67679 | 5381 ft | 0 kts | 201° |
| 2026-05-08 04:18 | 39.85449 | -104.67674 | 5382 ft | 8 kts | 201° |
| 2026-05-08 04:19 | 39.85497 | -104.67650 | 5380 ft | 7 kts | 201° |
| 2026-05-08 04:19 | 39.85522 | -104.67638 | 5382 ft | 0 kts | 201° |
| 2026-05-08 04:23 | 39.85508 | -104.67653 | 5382 ft | 6 kts | 237° |
| 2026-05-08 04:23 | 39.85503 | -104.67725 | 5382 ft | 12 kts | 291° |
| 2026-05-08 04:23 | 39.85588 | -104.67801 | 5377 ft | 20 kts | 333° |
| 2026-05-08 04:23 | 39.85599 | -104.67945 | 5377 ft | 22 kts | 236° |
| 2026-05-08 04:24 | 39.85588 | -104.68149 | 5378 ft | 27 kts | 283° |
| 2026-05-08 04:24 | 39.85608 | -104.68418 | 5374 ft | 32 kts | 262° |
| 2026-05-08 04:24 | 39.85453 | -104.68427 | 5371 ft | 27 kts | 141° |
| 2026-05-08 04:24 | 39.85267 | -104.68354 | 5377 ft | 31 kts | 179° |
| 2026-05-08 04:25 | 39.85090 | -104.68430 | 5377 ft | 28 kts | 260° |
| 2026-05-08 04:25 | 39.85085 | -104.68558 | 5370 ft | 0 kts | 268° |
| 2026-05-08 04:25 | 39.85084 | -104.68601 | 5368 ft | 12 kts | 267° |
| 2026-05-08 04:25 | 39.85095 | -104.68738 | 5363 ft | 20 kts | 282° |
| 2026-05-08 04:26 | 39.85154 | -104.68951 | 5355 ft | 29 kts | 294° |
| 2026-05-08 04:26 | 39.85210 | -104.69239 | 5344 ft | 37 kts | 275° |
| 2026-05-08 04:26 | 39.85210 | -104.69591 | 5333 ft | 39 kts | 269° |
| 2026-05-08 04:26 | 39.85385 | -104.69689 | 5337 ft | 31 kts | 20° |
| 2026-05-08 04:27 | 39.85630 | -104.69639 | 5341 ft | 61 kts | 7° |
| 2026-05-08 04:27 | 39.86343 | -104.69580 | 5335 ft | 141 kts | 359° |
| 2026-05-08 04:27 | 39.87487 | -104.69591 | 5558 ft | 182 kts | 359° |
| 2026-05-08 04:27 | 39.88767 | -104.69597 | 6298 ft | 191 kts | 359° |
| 2026-05-08 04:28 | 39.90129 | -104.69600 | 7030 ft | 201 kts | 359° |
| 2026-05-08 04:28 | 39.91566 | -104.69706 | 7531 ft | 220 kts | 345° |
| 2026-05-08 04:28 | 39.92932 | -104.70733 | 7935 ft | 238 kts | 313° |
| 2026-05-08 04:28 | 39.93766 | -104.72684 | 8262 ft | 258 kts | 282° |
| 2026-05-08 04:29 | 39.93820 | -104.75034 | 8776 ft | 264 kts | 263° |
| 2026-05-08 04:29 | 39.93567 | -104.77412 | 9381 ft | 266 kts | 262° |
| 2026-05-08 04:29 | 39.93346 | -104.79808 | 9954 ft | 268 kts | 264° |
| 2026-05-08 04:29 | 39.93224 | -104.82249 | 10525 ft | 270 kts | 268° |
| 2026-05-08 04:30 | 39.93180 | -104.84680 | 11066 ft | 273 kts | 269° |
| 2026-05-08 04:30 | 39.93176 | -104.87157 | 11600 ft | 275 kts | 270° |
| 2026-05-08 04:30 | 39.93188 | -104.89653 | 12008 ft | 277 kts | 270° |
| 2026-05-08 04:30 | 39.93213 | -104.92174 | 12380 ft | 279 kts | 271° |
| 2026-05-08 04:31 | 39.93275 | -104.94705 | 12744 ft | 281 kts | 272° |
| 2026-05-08 04:31 | 39.93350 | -104.97254 | 13116 ft | 282 kts | 272° |
| 2026-05-08 04:31 | 39.93422 | -104.99815 | 13472 ft | 284 kts | 272° |
| 2026-05-08 04:31 | 39.93489 | -105.02395 | 13813 ft | 285 kts | 272° |
| 2026-05-08 04:32 | 39.93551 | -105.04985 | 14138 ft | 287 kts | 271° |
| 2026-05-08 04:32 | 39.93611 | -105.07592 | 14457 ft | 288 kts | 271° |
| 2026-05-08 04:32 | 39.93669 | -105.10176 | 14754 ft | 290 kts | 271° |
| 2026-05-08 04:32 | 39.93728 | -105.12841 | 15065 ft | 291 kts | 271° |
| 2026-05-08 04:33 | 39.93787 | -105.15484 | 15349 ft | 293 kts | 271° |
| 2026-05-08 04:33 | 39.93845 | -105.18144 | 15612 ft | 294 kts | 271° |
| 2026-05-08 04:33 | 39.93901 | -105.20777 | 15870 ft | 295 kts | 271° |
| 2026-05-08 04:33 | 39.94019 | -105.23453 | 16110 ft | 297 kts | 276° |
| 2026-05-08 04:34 | 39.94241 | -105.26132 | 16370 ft | 297 kts | 276° |
| 2026-05-08 04:34 | 39.94458 | -105.28831 | 16572 ft | 299 kts | 276° |
| 2026-05-08 04:34 | 39.94673 | -105.31550 | 16736 ft | 302 kts | 276° |
| 2026-05-08 04:34 | 39.94886 | -105.34264 | 16939 ft | 302 kts | 276° |
| 2026-05-08 04:35 | 39.95100 | -105.37014 | 17021 ft | 308 kts | 276° |
| 2026-05-08 04:35 | 39.95318 | -105.39827 | 17084 ft | 316 kts | 276° |
| 2026-05-08 04:35 | 39.95543 | -105.42703 | 17135 ft | 322 kts | 276° |
| 2026-05-08 04:35 | 39.95773 | -105.45637 | 17184 ft | 328 kts | 276° |
| 2026-05-08 04:36 | 39.96008 | -105.48635 | 17271 ft | 341 kts | 276° |
| 2026-05-08 04:36 | 39.96255 | -105.51804 | 17461 ft | 361 kts | 276° |
| 2026-05-08 04:36 | 39.96513 | -105.55125 | 17837 ft | 373 kts | 276° |
| 2026-05-08 04:36 | 39.96774 | -105.58508 | 18418 ft | 378 kts | 276° |
| 2026-05-08 04:37 | 39.97035 | -105.61933 | 19016 ft | 381 kts | 276° |
| 2026-05-08 04:37 | 39.97297 | -105.65388 | 19547 ft | 385 kts | 275° |
| 2026-05-08 04:37 | 39.97542 | -105.68895 | 19919 ft | 394 kts | 274° |
| 2026-05-08 04:37 | 39.97727 | -105.72521 | 20223 ft | 403 kts | 273° |
| 2026-05-08 04:38 | 39.97890 | -105.76122 | 20820 ft | 404 kts | 273° |
| 2026-05-08 04:38 | 39.98057 | -105.79764 | 21412 ft | 406 kts | 273° |
| 2026-05-08 04:38 | 39.98229 | -105.83409 | 21953 ft | 410 kts | 274° |
| 2026-05-08 04:38 | 39.98411 | -105.87135 | 22490 ft | 413 kts | 274° |
| 2026-05-08 04:39 | 39.98595 | -105.90891 | 22999 ft | 417 kts | 274° |
| 2026-05-08 04:39 | 39.98781 | -105.94677 | 23491 ft | 421 kts | 274° |
| 2026-05-08 04:39 | 39.98967 | -105.98501 | 23964 ft | 424 kts | 274° |
| 2026-05-08 04:39 | 39.99155 | -106.02361 | 24365 ft | 429 kts | 274° |
| 2026-05-08 04:40 | 39.99341 | -106.06245 | 24854 ft | 431 kts | 274° |
| 2026-05-08 04:40 | 39.99528 | -106.10153 | 25347 ft | 432 kts | 274° |
| 2026-05-08 04:40 | 39.99714 | -106.14072 | 25828 ft | 435 kts | 273° |
| 2026-05-08 04:40 | 39.99900 | -106.18031 | 26222 ft | 438 kts | 273° |
| 2026-05-08 04:41 | 40.00085 | -106.22005 | 26667 ft | 440 kts | 273° |
| 2026-05-08 04:41 | 40.00271 | -106.26008 | 27046 ft | 444 kts | 273° |
| 2026-05-08 04:41 | 40.00457 | -106.30040 | 27428 ft | 446 kts | 273° |
| 2026-05-08 04:41 | 40.00642 | -106.34096 | 27812 ft | 449 kts | 273° |
| 2026-05-08 04:42 | 40.00826 | -106.38170 | 28196 ft | 451 kts | 273° |
| 2026-05-08 04:42 | 40.01010 | -106.42260 | 28533 ft | 454 kts | 273° |
| 2026-05-08 04:42 | 40.01195 | -106.46397 | 28762 ft | 459 kts | 273° |
| 2026-05-08 04:42 | 40.01378 | -106.50546 | 29166 ft | 459 kts | 273° |
| 2026-05-08 04:43 | 40.01559 | -106.54719 | 29433 ft | 462 kts | 273° |
| 2026-05-08 04:43 | 40.01742 | -106.58918 | 29716 ft | 465 kts | 273° |
| 2026-05-08 04:43 | 40.01924 | -106.63144 | 29958 ft | 468 kts | 273° |
| 2026-05-08 04:43 | 40.02106 | -106.67388 | 30251 ft | 469 kts | 273° |
| 2026-05-08 04:44 | 40.02286 | -106.71640 | 30575 ft | 471 kts | 273° |
| 2026-05-08 04:44 | 40.02463 | -106.75863 | 30817 ft | 473 kts | 273° |
| 2026-05-08 04:44 | 40.02642 | -106.80156 | 31206 ft | 473 kts | 273° |
| 2026-05-08 04:44 | 40.02819 | -106.84450 | 31558 ft | 474 kts | 273° |
| 2026-05-08 04:45 | 40.02994 | -106.88739 | 31954 ft | 473 kts | 273° |
| 2026-05-08 04:45 | 40.03167 | -106.93023 | 32309 ft | 473 kts | 273° |
| 2026-05-08 04:45 | 40.03339 | -106.97302 | 32635 ft | 472 kts | 273° |
| 2026-05-08 04:45 | 40.03509 | -107.01593 | 32880 ft | 473 kts | 273° |
| 2026-05-08 04:46 | 40.03678 | -107.05880 | 33129 ft | 474 kts | 273° |
| 2026-05-08 04:46 | 40.03845 | -107.10174 | 33424 ft | 473 kts | 273° |
| 2026-05-08 04:46 | 40.04011 | -107.14460 | 33650 ft | 473 kts | 273° |
| 2026-05-08 04:46 | 40.04175 | -107.18754 | 33839 ft | 474 kts | 273° |
| 2026-05-08 04:47 | 40.04338 | -107.23054 | 34089 ft | 473 kts | 272° |
| 2026-05-08 04:47 | 40.04499 | -107.27338 | 34384 ft | 471 kts | 272° |
| 2026-05-08 04:47 | 40.04656 | -107.31587 | 34758 ft | 468 kts | 272° |
| 2026-05-08 04:47 | 40.04812 | -107.35829 | 35000 ft | 468 kts | 272° |
| 2026-05-08 04:48 | 40.04967 | -107.40077 | 35195 ft | 468 kts | 272° |
| 2026-05-08 04:48 | 40.05120 | -107.44314 | 35519 ft | 466 kts | 272° |
| 2026-05-08 04:48 | 40.05268 | -107.48476 | 35873 ft | 464 kts | 272° |
| 2026-05-08 04:48 | 40.05417 | -107.52692 | 35991 ft | 467 kts | 272° |
| 2026-05-08 04:49 | 40.05715 | -107.61264 | 36003 ft | 478 kts | 272° |
| 2026-05-08 04:49 | 40.06009 | -107.69910 | 36003 ft | 469 kts | 272° |
| 2026-05-08 04:50 | 40.06295 | -107.78517 | 35994 ft | 477 kts | 272° |
| 2026-05-08 04:50 | 40.06580 | -107.87253 | 35999 ft | 485 kts | 272° |
| 2026-05-08 04:51 | 40.06880 | -107.96093 | 35999 ft | 489 kts | 273° |
| 2026-05-08 04:51 | 40.07082 | -108.00486 | 35999 ft | 478 kts | 274° |
| 2026-05-08 04:51 | 40.07289 | -108.04733 | 35997 ft | 461 kts | 274° |
| 2026-05-08 04:52 | 40.07679 | -108.12960 | 35999 ft | 457 kts | 273° |
| 2026-05-08 04:52 | 40.08053 | -108.21286 | 35998 ft | 458 kts | 273° |
| 2026-05-08 04:53 | 40.08416 | -108.29589 | 36002 ft | 460 kts | 273° |
| 2026-05-08 04:53 | 40.08774 | -108.37927 | 35999 ft | 458 kts | 273° |
| 2026-05-08 04:54 | 40.09126 | -108.46250 | 35999 ft | 460 kts | 273° |
| 2026-05-08 04:54 | 40.09473 | -108.54590 | 35999 ft | 461 kts | 273° |
| 2026-05-08 04:55 | 40.09812 | -108.62893 | 35999 ft | 458 kts | 273° |
| 2026-05-08 04:55 | 40.10147 | -108.71245 | 35999 ft | 458 kts | 273° |
| 2026-05-08 04:56 | 40.10472 | -108.79481 | 36004 ft | 456 kts | 273° |
| 2026-05-08 04:56 | 40.10781 | -108.87770 | 35999 ft | 457 kts | 272° |
| 2026-05-08 04:57 | 40.10795 | -108.96072 | 35999 ft | 458 kts | 269° |
| 2026-05-08 04:57 | 40.10825 | -109.04388 | 35999 ft | 457 kts | 271° |
| 2026-05-08 04:58 | 40.10962 | -109.12679 | 35999 ft | 457 kts | 271° |
| 2026-05-08 04:58 | 40.11093 | -109.19579 | 35999 ft | 457 kts | 271° |
| 2026-05-08 04:59 | 40.11246 | -109.27881 | 36002 ft | 456 kts | 271° |
| 2026-05-08 04:59 | 40.11390 | -109.36167 | 35999 ft | 456 kts | 271° |
| 2026-05-08 05:00 | 40.11528 | -109.44458 | 36000 ft | 456 kts | 271° |
| 2026-05-08 05:00 | 40.11659 | -109.52735 | 35852 ft | 453 kts | 271° |
| 2026-05-08 05:01 | 40.11723 | -109.56839 | 35372 ft | 451 kts | 271° |
| 2026-05-08 05:01 | 40.11784 | -109.60937 | 34691 ft | 452 kts | 271° |
| 2026-05-08 05:01 | 40.11845 | -109.65046 | 33911 ft | 453 kts | 271° |
| 2026-05-08 05:01 | 40.11904 | -109.69178 | 33091 ft | 455 kts | 271° |
| 2026-05-08 05:02 | 40.11962 | -109.73317 | 32266 ft | 456 kts | 271° |
| 2026-05-08 05:02 | 40.12018 | -109.77472 | 31394 ft | 458 kts | 271° |
| 2026-05-08 05:02 | 40.12073 | -109.81589 | 30527 ft | 460 kts | 271° |
| 2026-05-08 05:02 | 40.12126 | -109.85761 | 29777 ft | 458 kts | 271° |
| 2026-05-08 05:03 | 40.12178 | -109.89906 | 29141 ft | 453 kts | 271° |
| 2026-05-08 05:03 | 40.12228 | -109.94009 | 28537 ft | 448 kts | 271° |
| 2026-05-08 05:03 | 40.12276 | -109.98065 | 27893 ft | 444 kts | 271° |
| 2026-05-08 05:03 | 40.12322 | -110.02078 | 27257 ft | 440 kts | 271° |
| 2026-05-08 05:04 | 40.12367 | -110.06054 | 26626 ft | 436 kts | 271° |
| 2026-05-08 05:04 | 40.12409 | -110.09992 | 26000 ft | 431 kts | 271° |
| 2026-05-08 05:04 | 40.12450 | -110.13887 | 25372 ft | 427 kts | 271° |
| 2026-05-08 05:04 | 40.12489 | -110.17758 | 24751 ft | 423 kts | 271° |
| 2026-05-08 05:05 | 40.12527 | -110.21588 | 24138 ft | 419 kts | 271° |
| 2026-05-08 05:05 | 40.12562 | -110.25376 | 23520 ft | 415 kts | 270° |
| 2026-05-08 05:05 | 40.12597 | -110.29136 | 22898 ft | 412 kts | 270° |
| 2026-05-08 05:05 | 40.12630 | -110.32860 | 22289 ft | 408 kts | 270° |
| 2026-05-08 05:06 | 40.12661 | -110.36552 | 21674 ft | 404 kts | 270° |
| 2026-05-08 05:06 | 40.12691 | -110.40206 | 21069 ft | 401 kts | 270° |
| 2026-05-08 05:06 | 40.12719 | -110.43829 | 20477 ft | 397 kts | 270° |
| 2026-05-08 05:06 | 40.12747 | -110.47417 | 19864 ft | 393 kts | 270° |
| 2026-05-08 05:07 | 40.12772 | -110.50975 | 19265 ft | 390 kts | 270° |
| 2026-05-08 05:07 | 40.12797 | -110.54501 | 18658 ft | 387 kts | 270° |
| 2026-05-08 05:07 | 40.12820 | -110.58008 | 18059 ft | 384 kts | 270° |
| 2026-05-08 05:07 | 40.12842 | -110.61475 | 17480 ft | 380 kts | 270° |
| 2026-05-08 05:08 | 40.12863 | -110.64864 | 16919 ft | 376 kts | 270° |
| 2026-05-08 05:08 | 40.12883 | -110.68313 | 16371 ft | 372 kts | 270° |
| 2026-05-08 05:08 | 40.12901 | -110.71641 | 15787 ft | 370 kts | 270° |
| 2026-05-08 05:08 | 40.12919 | -110.75030 | 15243 ft | 366 kts | 270° |
| 2026-05-08 05:09 | 40.12934 | -110.78280 | 15035 ft | 363 kts | 270° |
| 2026-05-08 05:09 | 40.12950 | -110.81610 | 14982 ft | 368 kts | 270° |
| 2026-05-08 05:09 | 40.12964 | -110.84950 | 14980 ft | 367 kts | 270° |
| 2026-05-08 05:09 | 40.12977 | -110.88282 | 14980 ft | 366 kts | 270° |
| 2026-05-08 05:10 | 40.12990 | -110.91612 | 14980 ft | 367 kts | 270° |
| 2026-05-08 05:10 | 40.13012 | -110.98289 | 14979 ft | 368 kts | 270° |
| 2026-05-08 05:10 | 40.13022 | -111.01639 | 14980 ft | 369 kts | 270° |
| 2026-05-08 05:11 | 40.13030 | -111.04982 | 14980 ft | 368 kts | 270° |
| 2026-05-08 05:11 | 40.13038 | -111.08322 | 14980 ft | 368 kts | 270° |
| 2026-05-08 05:11 | 40.13045 | -111.11670 | 14981 ft | 368 kts | 270° |
| 2026-05-08 05:11 | 40.13051 | -111.15013 | 14980 ft | 368 kts | 270° |
| 2026-05-08 05:12 | 40.13056 | -111.18361 | 14980 ft | 368 kts | 270° |
| 2026-05-08 05:12 | 40.13060 | -111.21711 | 14980 ft | 368 kts | 270° |
| 2026-05-08 05:12 | 40.13063 | -111.24988 | 14979 ft | 352 kts | 270° |
| 2026-05-08 05:12 | 40.13064 | -111.28104 | 14978 ft | 334 kts | 270° |
| 2026-05-08 05:13 | 40.13065 | -111.31059 | 14979 ft | 318 kts | 270° |
| 2026-05-08 05:13 | 40.13065 | -111.34049 | 14983 ft | 344 kts | 270° |
| 2026-05-08 05:13 | 40.13065 | -111.37291 | 14981 ft | 367 kts | 270° |
| 2026-05-08 05:13 | 40.13063 | -111.40641 | 14980 ft | 367 kts | 270° |
| 2026-05-08 05:14 | 40.13061 | -111.43963 | 14980 ft | 365 kts | 270° |
| 2026-05-08 05:14 | 40.13058 | -111.47292 | 14979 ft | 366 kts | 270° |
| 2026-05-08 05:14 | 40.13055 | -111.50545 | 14979 ft | 349 kts | 270° |
| 2026-05-08 05:14 | 40.13156 | -111.53597 | 14979 ft | 331 kts | 277° |
| 2026-05-08 05:15 | 40.13597 | -111.56476 | 14902 ft | 317 kts | 288° |
| 2026-05-08 05:15 | 40.14580 | -111.58965 | 14788 ft | 303 kts | 308° |
| 2026-05-08 05:15 | 40.15913 | -111.61032 | 14675 ft | 292 kts | 310° |
| 2026-05-08 05:15 | 40.17233 | -111.63009 | 14378 ft | 287 kts | 311° |
| 2026-05-08 05:16 | 40.18560 | -111.64956 | 14004 ft | 286 kts | 311° |
| 2026-05-08 05:16 | 40.19889 | -111.66882 | 13587 ft | 286 kts | 312° |
| 2026-05-08 05:16 | 40.21248 | -111.68843 | 12920 ft | 295 kts | 312° |
| 2026-05-08 05:16 | 40.22649 | -111.70860 | 12303 ft | 301 kts | 312° |
| 2026-05-08 05:17 | 40.24042 | -111.72868 | 12060 ft | 294 kts | 312° |
| 2026-05-08 05:17 | 40.25387 | -111.74806 | 11974 ft | 280 kts | 312° |
| 2026-05-08 05:17 | 40.26675 | -111.76665 | 11978 ft | 276 kts | 312° |
| 2026-05-08 05:17 | 40.27974 | -111.78542 | 11984 ft | 279 kts | 312° |
| 2026-05-08 05:18 | 40.29272 | -111.80419 | 11983 ft | 277 kts | 312° |
| 2026-05-08 05:18 | 40.30566 | -111.82289 | 11979 ft | 277 kts | 312° |
| 2026-05-08 05:18 | 40.31863 | -111.84164 | 11983 ft | 278 kts | 312° |
| 2026-05-08 05:18 | 40.33160 | -111.86040 | 11977 ft | 278 kts | 312° |
| 2026-05-08 05:19 | 40.34500 | -111.87849 | 11943 ft | 276 kts | 319° |
| 2026-05-08 05:19 | 40.36050 | -111.89323 | 11691 ft | 275 kts | 327° |
| 2026-05-08 05:19 | 40.37668 | -111.90660 | 11340 ft | 275 kts | 327° |
| 2026-05-08 05:19 | 40.39274 | -111.92007 | 10981 ft | 273 kts | 327° |
| 2026-05-08 05:20 | 40.40848 | -111.93338 | 10620 ft | 272 kts | 327° |
| 2026-05-08 05:20 | 40.42441 | -111.94673 | 10251 ft | 271 kts | 330° |
| 2026-05-08 05:20 | 40.44170 | -111.95589 | 10035 ft | 268 kts | 346° |
| 2026-05-08 05:20 | 40.46036 | -111.95923 | 9982 ft | 272 kts | 356° |
| 2026-05-08 05:21 | 40.47918 | -111.96075 | 9956 ft | 271 kts | 355° |
| 2026-05-08 05:21 | 40.49811 | -111.96299 | 9658 ft | 273 kts | 354° |
| 2026-05-08 05:21 | 40.51707 | -111.96519 | 9266 ft | 273 kts | 354° |
| 2026-05-08 05:21 | 40.53595 | -111.96740 | 8884 ft | 272 kts | 354° |
| 2026-05-08 05:22 | 40.55478 | -111.96960 | 8514 ft | 271 kts | 354° |
| 2026-05-08 05:22 | 40.57351 | -111.97179 | 8148 ft | 269 kts | 354° |
| 2026-05-08 05:22 | 40.59210 | -111.97397 | 7780 ft | 267 kts | 354° |
| 2026-05-08 05:22 | 40.61033 | -111.97610 | 7435 ft | 257 kts | 354° |
| 2026-05-08 05:23 | 40.62775 | -111.97814 | 7095 ft | 246 kts | 354° |
| 2026-05-08 05:23 | 40.64448 | -111.98010 | 6777 ft | 236 kts | 354° |
| 2026-05-08 05:23 | 40.66013 | -111.98193 | 6510 ft | 212 kts | 354° |
| 2026-05-08 05:23 | 40.67403 | -111.98356 | 6208 ft | 190 kts | 354° |
| 2026-05-08 05:24 | 40.68665 | -111.98504 | 5963 ft | 175 kts | 354° |
| 2026-05-08 05:24 | 40.69830 | -111.98641 | 5737 ft | 161 kts | 354° |
| 2026-05-08 05:24 | 40.70909 | -111.98767 | 5531 ft | 151 kts | 354° |
| 2026-05-08 05:24 | 40.71917 | -111.98886 | 5348 ft | 142 kts | 354° |
| 2026-05-08 05:25 | 40.72888 | -111.99000 | 5162 ft | 141 kts | 354° |
| 2026-05-08 05:25 | 40.73873 | -111.99116 | 4974 ft | 140 kts | 354° |
| 2026-05-08 05:25 | 40.74828 | -111.99228 | 4791 ft | 139 kts | 354° |
| 2026-05-08 05:25 | 40.75786 | -111.99341 | 4604 ft | 138 kts | 354° |
| 2026-05-08 05:26 | 40.76741 | -111.99453 | 4427 ft | 138 kts | 354° |
| 2026-05-08 05:26 | 40.77700 | -111.99566 | 4249 ft | 136 kts | 355° |
| 2026-05-08 05:26 | 40.78564 | -111.99667 | 4238 ft | 107 kts | 355° |
| 2026-05-08 05:26 | 40.79149 | -111.99736 | 4235 ft | 65 kts | 355° |
| 2026-05-08 05:27 | 40.79471 | -111.99800 | 4231 ft | 29 kts | 9° |
| 2026-05-08 05:27 | 40.79624 | -111.99760 | 4230 ft | 30 kts | 5° |
| 2026-05-08 05:27 | 40.79856 | -111.99680 | 4232 ft | 38 kts | 49° |
| 2026-05-08 05:27 | 40.79807 | -111.99418 | 4229 ft | 30 kts | 168° |
| 2026-05-08 05:28 | 40.79610 | -111.99416 | 4231 ft | 26 kts | 184° |
| 2026-05-08 05:28 | 40.79449 | -111.99433 | 4231 ft | 22 kts | 186° |
| 2026-05-08 05:28 | 40.79287 | -111.99452 | 4233 ft | 24 kts | 177° |
| 2026-05-08 05:28 | 40.79128 | -111.99431 | 4238 ft | 23 kts | 173° |
| 2026-05-08 05:29 | 40.78965 | -111.99406 | 4238 ft | 24 kts | 173° |
| 2026-05-08 05:29 | 40.78800 | -111.99384 | 4240 ft | 24 kts | 175° |
| 2026-05-08 05:29 | 40.78673 | -111.99288 | 4237 ft | 22 kts | 129° |
| 2026-05-08 05:29 | 40.78571 | -111.99120 | 4235 ft | 24 kts | 128° |
| 2026-05-08 05:30 | 40.78551 | -111.99087 | 4234 ft | 0 kts | 128° |